createdAt,value
2023-03-01T00:00:54.641Z,83.2
2023-03-01T00:05:54.635Z,82.6
2023-03-01T00:10:54.688Z,82.7
2023-03-01T00:15:54.652Z,82.8
2023-03-01T00:20:54.636Z,82.8
2023-03-01T00:25:54.644Z,82.9
2023-03-01T00:30:54.673Z,83.7
2023-03-01T00:35:54.694Z,82.9
2023-03-01T00:40:54.669Z,82.9
2023-03-01T00:45:54.713Z,83.1
2023-03-01T00:50:54.660Z,83.4
2023-03-01T00:55:54.656Z,83.8
2023-03-01T01:00:54.661Z,83.3
2023-03-01T01:05:54.678Z,83.5
2023-03-01T01:10:54.670Z,83.7
2023-03-01T01:15:54.749Z,83.6
2023-03-01T01:20:54.684Z,83.3
2023-03-01T01:25:54.683Z,83.2
2023-03-01T01:30:54.682Z,83.6
2023-03-01T01:35:54.736Z,83.3
2023-03-01T01:40:54.682Z,83.7
2023-03-01T01:45:54.737Z,83.7
2023-03-01T01:50:54.680Z,83.8
2023-03-01T01:55:54.692Z,84.0
2023-03-01T02:00:54.695Z,84.1
2023-03-01T02:05:55.474Z,84.5
2023-03-01T02:10:54.696Z,84.3
2023-03-01T02:15:54.788Z,84.5
2023-03-01T02:20:54.698Z,84.7
2023-03-01T02:25:54.705Z,84.6
2023-03-01T02:30:54.714Z,85.1
2023-03-01T02:35:54.763Z,84.9
2023-03-01T02:40:54.717Z,85.2
2023-03-01T02:45:54.782Z,85.7
2023-03-01T02:50:54.722Z,85.4
2023-03-01T02:55:54.726Z,85.6
2023-03-01T03:00:54.810Z,86.0
2023-03-01T03:05:54.736Z,85.9
2023-03-01T03:10:54.726Z,86.2
2023-03-01T03:15:54.785Z,86.5
2023-03-01T03:20:54.733Z,86.8
2023-03-01T03:25:54.735Z,86.7
2023-03-01T03:30:54.738Z,86.5
2023-03-01T03:35:54.785Z,86.7
2023-03-01T03:40:54.746Z,86.7
2023-03-01T03:45:54.835Z,87.2
2023-03-01T03:50:54.748Z,87.4
2023-03-01T03:55:54.760Z,87.5
2023-03-01T04:00:54.760Z,87.7
2023-03-01T04:05:54.773Z,87.9
2023-03-01T04:10:54.757Z,87.7
2023-03-01T04:15:54.828Z,88.0
2023-03-01T04:20:54.758Z,88.1
2023-03-01T04:25:54.916Z,88.3
2023-03-01T04:30:54.772Z,88.4
2023-03-01T04:35:54.897Z,88.6
2023-03-01T04:40:54.782Z,88.8
2023-03-01T04:45:54.885Z,89.0
2023-03-01T04:50:54.779Z,89.3
2023-03-01T04:55:54.786Z,89.5
2023-03-01T05:00:54.785Z,89.8
2023-03-01T05:05:54.794Z,90.2
2023-03-01T05:10:54.786Z,90.4
2023-03-01T05:15:54.833Z,90.2
2023-03-01T05:20:54.790Z,90.3
2023-03-01T05:25:54.798Z,90.5
2023-03-01T05:30:54.826Z,90.5
2023-03-01T05:35:54.857Z,90.4
2023-03-01T05:40:54.813Z,90.3
2023-03-01T05:45:54.889Z,90.4
2023-03-01T05:50:54.809Z,90.3
2023-03-01T05:55:54.823Z,90.4
2023-03-01T06:00:56.196Z,90.5
2023-03-01T06:05:54.832Z,90.4
2023-03-01T06:10:54.821Z,90.6
2023-03-01T06:15:54.862Z,90.6
2023-03-01T06:20:54.830Z,90.9
2023-03-01T06:25:54.864Z,90.8
2023-03-01T06:30:54.855Z,90.8
2023-03-01T06:35:54.931Z,90.8
2023-03-01T06:40:54.849Z,90.8
2023-03-01T06:45:54.908Z,90.9
2023-03-01T06:50:54.885Z,91.1
2023-03-01T06:55:54.846Z,90.7
2023-03-01T07:00:54.850Z,91.0
2023-03-01T07:05:55.096Z,90.9
2023-03-01T07:10:54.860Z,91.2
2023-03-01T07:15:54.987Z,91.4
2023-03-01T07:20:54.856Z,91.6
2023-03-01T07:25:54.863Z,92.1
2023-03-01T07:30:54.868Z,92.9
2023-03-01T07:35:54.919Z,93.2
2023-03-01T07:40:54.878Z,93.1
2023-03-01T07:45:54.961Z,93.8
2023-03-01T07:50:54.912Z,93.9
2023-03-01T07:55:54.874Z,93.7
2023-03-01T08:00:54.887Z,93.4
2023-03-01T08:05:54.907Z,93.9
2023-03-01T08:10:54.877Z,93.6
2023-03-01T08:15:54.908Z,93.0
2023-03-01T08:20:54.891Z,93.0
2023-03-01T08:25:54.883Z,93.2
2023-03-01T08:30:54.887Z,92.7
2023-03-01T08:35:54.994Z,92.5
2023-03-01T08:40:54.897Z,91.7
2023-03-01T08:45:55.064Z,92.0
2023-03-01T08:50:54.900Z,91.0
2023-03-01T08:55:54.929Z,90.5
2023-03-01T09:00:54.906Z,90.0
2023-03-01T09:05:54.917Z,89.3
2023-03-01T09:10:54.925Z,88.8
2023-03-01T09:15:54.946Z,88.3
2023-03-01T09:20:54.923Z,88.0
2023-03-01T09:25:54.923Z,87.8
2023-03-01T09:30:54.972Z,85.8
2023-03-01T09:35:54.972Z,85.6
2023-03-01T09:40:54.933Z,85.0
2023-03-01T09:45:54.998Z,80.0
2023-03-01T09:50:54.951Z,78.7
2023-03-01T09:55:54.949Z,76.1
2023-03-01T10:00:54.942Z,76.1
2023-03-01T10:05:54.962Z,76.3
2023-03-01T10:10:54.972Z,73.2
2023-03-01T10:15:55.004Z,68.5
2023-03-01T10:20:54.968Z,67.0
2023-03-01T10:25:54.987Z,65.8
2023-03-01T10:30:55.001Z,64.7
2023-03-01T10:35:54.975Z,65.4
2023-03-01T10:40:55.013Z,64.5
2023-03-01T10:45:55.064Z,63.4
2023-03-01T10:50:54.970Z,60.9
2023-03-01T10:55:54.976Z,60.7
2023-03-01T11:00:54.981Z,57.8
2023-03-01T11:05:54.987Z,57.8
2023-03-01T11:10:54.984Z,57.1
2023-03-01T11:15:55.120Z,57.8
2023-03-01T11:20:54.994Z,59.2
2023-03-01T11:25:55.008Z,56.9
2023-03-01T11:31:07.151Z,56.6
2023-03-01T11:35:55.024Z,56.6
2023-03-01T11:40:56.138Z,56.9
2023-03-01T11:45:55.020Z,55.4
2023-03-01T11:50:55.000Z,53.1
2023-03-01T11:55:55.010Z,52.7
2023-03-01T12:00:55.005Z,53.0
2023-03-01T12:05:55.018Z,53.9
2023-03-01T12:10:55.021Z,53.8
2023-03-01T12:15:55.065Z,51.2
2023-03-01T12:20:55.041Z,52.4
2023-03-01T12:25:55.018Z,50.1
2023-03-01T12:30:55.025Z,50.2
2023-03-01T12:35:55.170Z,49.0
2023-03-01T12:40:55.035Z,48.2
2023-03-01T12:45:55.166Z,48.5
2023-03-01T12:50:55.031Z,48.0
2023-03-01T12:55:55.042Z,48.4
2023-03-01T13:00:55.064Z,48.5
2023-03-01T13:05:55.051Z,50.5
2023-03-01T13:10:55.051Z,47.4
2023-03-01T13:15:55.101Z,48.8
2023-03-01T13:20:55.047Z,46.0
2023-03-01T13:25:55.059Z,46.2
2023-03-01T13:30:55.056Z,47.3
2023-03-01T13:35:55.151Z,46.6
2023-03-01T13:40:55.059Z,46.4
2023-03-01T13:45:55.159Z,46.2
2023-03-01T13:50:55.077Z,48.1
2023-03-01T13:55:55.076Z,46.9
2023-03-01T14:00:55.187Z,45.4
2023-03-01T14:06:01.941Z,44.6
2023-03-01T14:10:55.092Z,44.0
2023-03-01T14:15:55.099Z,45.4
2023-03-01T14:20:55.092Z,45.2
2023-03-01T14:25:55.098Z,44.6
2023-03-01T14:30:55.122Z,47.4
2023-03-01T14:35:55.173Z,48.0
2023-03-01T14:40:55.100Z,47.8
2023-03-01T14:45:55.159Z,49.3
2023-03-01T14:50:55.112Z,48.7
2023-03-01T14:55:55.109Z,48.5
2023-03-01T15:00:55.122Z,50.3
2023-03-01T15:05:55.119Z,50.2
2023-03-01T15:10:55.131Z,48.8
2023-03-01T15:15:55.157Z,49.6
2023-03-01T15:20:55.124Z,49.6
2023-03-01T15:25:55.131Z,50.0
2023-03-01T15:30:55.237Z,49.7
2023-03-01T15:35:55.263Z,49.3
2023-03-01T15:40:55.139Z,50.1
2023-03-01T15:45:55.152Z,49.9
2023-03-01T15:50:55.133Z,50.4
2023-03-01T15:55:55.134Z,49.8
2023-03-01T16:01:00.716Z,50.5
2023-03-01T16:05:55.151Z,50.5
2023-03-01T16:10:55.161Z,51.0
2023-03-01T16:15:55.215Z,51.5
2023-03-01T16:20:55.153Z,52.1
2023-03-01T16:25:55.157Z,51.9
2023-03-01T16:30:55.189Z,51.4
2023-03-01T16:35:55.255Z,52.2
2023-03-01T16:40:55.185Z,51.9
2023-03-01T16:45:55.249Z,52.6
2023-03-01T16:50:55.179Z,53.8
2023-03-01T16:55:55.180Z,54.1
2023-03-01T17:00:55.229Z,54.0
2023-03-01T17:05:55.210Z,55.3
2023-03-01T17:10:55.193Z,56.7
2023-03-01T17:15:55.201Z,57.7
2023-03-01T17:20:55.201Z,57.2
2023-03-01T17:25:55.193Z,57.3
2023-03-01T17:30:55.206Z,57.6
2023-03-01T17:35:55.234Z,58.4
2023-03-01T17:40:55.214Z,59.1
2023-03-01T17:45:55.262Z,59.8
2023-03-01T17:50:55.200Z,60.7
2023-03-01T17:55:55.209Z,61.0
2023-03-01T18:00:55.257Z,61.5
2023-03-01T18:05:57.286Z,62.1
2023-03-01T18:10:55.240Z,62.7
2023-03-01T18:15:55.288Z,63.7
2023-03-01T18:20:55.220Z,63.6
2023-03-01T18:25:55.220Z,64.5
2023-03-01T18:30:55.245Z,64.6
2023-03-01T18:35:55.280Z,64.1
2023-03-01T18:40:55.255Z,64.2
2023-03-01T18:45:55.353Z,64.1
2023-03-01T18:50:55.285Z,65.0
2023-03-01T18:55:57.875Z,66.2
2023-03-01T19:00:55.241Z,66.9
2023-03-01T19:05:55.246Z,65.7
2023-03-01T19:10:55.252Z,65.5
2023-03-01T19:15:55.301Z,66.6
2023-03-01T19:20:58.921Z,67.2
2023-03-01T19:25:55.256Z,67.7
2023-03-01T19:30:55.344Z,68.3
2023-03-01T19:35:56.759Z,69.5
2023-03-01T19:40:55.271Z,69.7
2023-03-01T19:45:55.378Z,70.3
2023-03-01T19:50:55.273Z,70.3
2023-03-01T19:55:55.263Z,71.0
2023-03-01T20:00:55.282Z,71.5
2023-03-01T20:05:55.279Z,72.4
2023-03-01T20:10:55.286Z,72.5
2023-03-01T20:15:55.335Z,73.2
2023-03-01T20:20:55.319Z,73.5
2023-03-01T20:25:55.284Z,73.4
2023-03-01T20:30:55.290Z,73.8
2023-03-01T20:35:56.199Z,73.8
2023-03-01T20:40:55.352Z,74.5
2023-03-01T20:45:55.334Z,75.4
2023-03-01T20:50:55.304Z,75.0
2023-03-01T20:55:55.299Z,75.8
2023-03-01T21:00:55.345Z,76.1
2023-03-01T21:05:55.305Z,76.2
2023-03-01T21:10:55.318Z,76.8
2023-03-01T21:15:55.418Z,77.4
2023-03-01T21:20:55.321Z,77.9
2023-03-01T21:25:55.330Z,78.8
2023-03-01T21:30:55.338Z,78.6
2023-03-01T21:35:55.395Z,78.8
2023-03-01T21:40:55.385Z,79.0
2023-03-01T21:45:55.501Z,79.6
2023-03-01T21:50:55.335Z,80.0
2023-03-01T21:55:55.340Z,80.3
2023-03-01T22:00:55.395Z,81.3
2023-03-01T22:05:55.340Z,82.6
2023-03-01T22:10:55.361Z,82.9
2023-03-01T22:15:55.420Z,83.8
2023-03-01T22:20:55.347Z,84.3
2023-03-01T22:25:55.361Z,85.1
2023-03-01T22:30:55.355Z,85.9
2023-03-01T22:35:55.414Z,86.9
2023-03-01T22:40:55.466Z,87.9
2023-03-01T22:45:55.471Z,89.3
2023-03-01T22:50:55.368Z,89.9
2023-03-01T22:55:55.382Z,90.6
2023-03-01T23:00:55.386Z,91.5
2023-03-01T23:05:55.377Z,92.0
2023-03-01T23:10:55.385Z,92.5
2023-03-01T23:15:55.458Z,92.8
2023-03-01T23:20:55.382Z,93.6
2023-03-01T23:25:55.389Z,94.3
2023-03-01T23:30:55.498Z,94.7
2023-03-01T23:35:55.444Z,95.2
2023-03-01T23:40:55.454Z,95.5
2023-03-01T23:45:55.466Z,95.9
2023-03-01T23:50:55.394Z,96.2
2023-03-01T23:55:55.400Z,96.1
